This is the latest recevied weather packets stored in our database for station/object AG1T-20. If no packets are shown the sender has not sent any weather packets the latest 1 day(s).
| Time | Temp. | Humidity | Pressure | Rain* | Wind** | Luminosity | Snow |
|---|---|---|---|---|---|---|---|
| 1777993204 | 9.44° C | 91% | 1013.3 hPa | 0.25 mm | 0.89 m/s, 349° | 28 W/m² | - |
| 1777992604 | 10° C | 91% | 1012.9 hPa | 0.25 mm | 0.89 m/s, 290° | 37 W/m² | - |
| 1777992005 | 10° C | 92% | 1012.9 hPa | 0.51 mm | 0 m/s | 33 W/m² | - |
| 1777991405 | 10° C | 92% | 1012.9 hPa | 0.51 mm | 0 m/s | 26 W/m² | - |
| 1777990804 | 10° C | 91% | 1012.9 hPa | 0.51 mm | 0.45 m/s, 155° | 30 W/m² | - |
| 1777990204 | 10° C | 89% | 1012.9 hPa | 0.25 mm | 0 m/s | 15 W/m² | - |
| 1777989605 | 10° C | 88% | 1012.9 hPa | 0.25 mm | 0 m/s | 5 W/m² | - |
| 1777989004 | 10° C | 86% | 1012.4 hPa | 0.25 mm | 0 m/s | 6 W/m² | - |
| 1777988405 | 10° C | 80% | 1012.4 hPa | 0 mm | 0 m/s | 9 W/m² | - |
| 1777987804 | 10.56° C | 76% | 1012.4 hPa | 0 mm | 0 m/s | 7 W/m² | - |
| 1777987205 | 11.11° C | 77% | 1012.4 hPa | 0 mm | 0.45 m/s, 75° | 4 W/m² | - |
| 1777986605 | 11.11° C | 78% | 1012.4 hPa | 0 mm | 0.45 m/s, 336° | 3 W/m² | - |
| 1777986005 | 11.11° C | 78% | 1012.4 hPa | 0 mm | 0.89 m/s, 325° | 2 W/m² | - |
| 1777985404 | 11.67° C | 73% | 1011.5 hPa | 0 mm | 0.45 m/s, 308° | 2 W/m² | - |
| 1777984804 | 11.67° C | 68% | 1011.5 hPa | 0 mm | 0 m/s | 1 W/m² | - |
| 1777984204 | 11.11° C | 68% | 1011.5 hPa | 0 mm | 0 m/s | 0 W/m² | - |
| 1777983605 | 11.67° C | 67% | 1011.5 hPa | 0 mm | 0 m/s | 0 W/m² | - |
| 1777983015 | 11.67° C | 67% | 1011.5 hPa | 0 mm | 0.45 m/s, 278° | 0 W/m² | - |
| 1777982404 | 11.11° C | 71% | 1011.5 hPa | 0 mm | 0.45 m/s, 326° | 0 W/m² | - |
| 1777981805 | 10.56° C | 74% | 1011.1 hPa | 0 mm | 0.45 m/s, 35° | 0 W/m² | - |
| 1777981204 | 11.11° C | 69% | 1011.1 hPa | 0 mm | 0.45 m/s, 327° | 0 W/m² | - |
| 1777980604 | 12.22° C | 60% | 1011.1 hPa | 0 mm | 0 m/s | 0 W/m² | - |
| 1777980004 | 12.78° C | 55% | 1011.1 hPa | 0 mm | 0 m/s | 0 W/m² | - |
| 1777979404 | 13.33° C | 54% | 1011.1 hPa | 0 mm | 0.89 m/s, 152° | 0 W/m² | - |
| 1777978804 | 13.33° C | 53% | 1011.1 hPa | 0 mm | 0.89 m/s, 77° | 0 W/m² | - |
* Rain latest hour (hover to see other rain measurements)
** Current wind speed in m/s (hover to see current wind gust speed)